sensor_id;sensor_type;location;lat;lon;timestamp;pressure;altitude;pressure_sealevel;temperature;humidity
11806;BME280;5960;42.602;23.482;2022-10-16T00:01:36;94017.50;;;10.86;72.32
11806;BME280;5960;42.602;23.482;2022-10-16T00:04:03;94010.44;;;10.87;72.53
11806;BME280;5960;42.602;23.482;2022-10-16T00:06:30;94015.59;;;10.80;72.37
11806;BME280;5960;42.602;23.482;2022-10-16T00:08:59;94024.25;;;10.65;72.57
11806;BME280;5960;42.602;23.482;2022-10-16T00:11:27;94022.50;;;10.58;73.36
11806;BME280;5960;42.602;23.482;2022-10-16T00:13:56;94025.78;;;10.60;73.13
11806;BME280;5960;42.602;23.482;2022-10-16T00:16:23;94022.94;;;10.61;72.75
11806;BME280;5960;42.602;23.482;2022-10-16T00:18:50;94020.72;;;10.50;72.81
11806;BME280;5960;42.602;23.482;2022-10-16T00:21:19;94013.50;;;10.44;73.63
11806;BME280;5960;42.602;23.482;2022-10-16T00:23:46;94019.44;;;10.46;73.24
11806;BME280;5960;42.602;23.482;2022-10-16T00:26:18;94026.88;;;10.34;73.54
11806;BME280;5960;42.602;23.482;2022-10-16T00:28:46;94030.31;;;10.43;73.81
11806;BME280;5960;42.602;23.482;2022-10-16T00:31:12;94030.81;;;10.38;73.73
11806;BME280;5960;42.602;23.482;2022-10-16T00:33:40;94032.47;;;10.39;73.24
11806;BME280;5960;42.602;23.482;2022-10-16T00:36:08;94040.72;;;10.28;73.98
11806;BME280;5960;42.602;23.482;2022-10-16T00:38:36;94029.25;;;10.20;73.88
11806;BME280;5960;42.602;23.482;2022-10-16T00:41:04;94035.53;;;10.19;74.16
11806;BME280;5960;42.602;23.482;2022-10-16T00:43:41;94038.81;;;10.21;74.18
11806;BME280;5960;42.602;23.482;2022-10-16T00:46:15;94036.81;;;10.23;73.96
11806;BME280;5960;42.602;23.482;2022-10-16T00:48:50;94038.97;;;10.20;73.95
11806;BME280;5960;42.602;23.482;2022-10-16T00:51:21;94041.81;;;10.10;74.37
11806;BME280;5960;42.602;23.482;2022-10-16T00:53:49;94040.69;;;10.04;74.36
11806;BME280;5960;42.602;23.482;2022-10-16T00:56:17;94041.47;;;10.13;74.18
11806;BME280;5960;42.602;23.482;2022-10-16T00:58:45;94050.97;;;10.22;73.97
11806;BME280;5960;42.602;23.482;2022-10-16T01:01:12;94042.78;;;10.17;73.73
11806;BME280;5960;42.602;23.482;2022-10-16T01:03:39;94058.28;;;10.04;74.30
11806;BME280;5960;42.602;23.482;2022-10-16T01:06:19;94046.09;;;10.03;74.80
11806;BME280;5960;42.602;23.482;2022-10-16T01:08:58;94050.25;;;9.97;75.23
11806;BME280;5960;42.602;23.482;2022-10-16T01:11:33;94048.78;;;9.94;75.08
11806;BME280;5960;42.602;23.482;2022-10-16T01:14:11;94044.88;;;9.82;74.92
11806;BME280;5960;42.602;23.482;2022-10-16T01:16:44;94054.72;;;9.88;75.48
11806;BME280;5960;42.602;23.482;2022-10-16T01:19:17;94053.41;;;9.92;74.86
11806;BME280;5960;42.602;23.482;2022-10-16T01:21:48;94055.03;;;9.93;74.86
11806;BME280;5960;42.602;23.482;2022-10-16T01:24:27;94065.44;;;9.87;75.52
11806;BME280;5960;42.602;23.482;2022-10-16T01:27:07;94046.31;;;9.93;75.40
11806;BME280;5960;42.602;23.482;2022-10-16T01:29:39;94044.84;;;9.90;75.11
11806;BME280;5960;42.602;23.482;2022-10-16T01:32:11;94041.09;;;9.85;75.09
11806;BME280;5960;42.602;23.482;2022-10-16T01:34:47;94040.00;;;9.62;75.65
11806;BME280;5960;42.602;23.482;2022-10-16T01:37:16;94034.59;;;9.64;75.97
11806;BME280;5960;42.602;23.482;2022-10-16T01:39:47;94033.88;;;9.78;75.76
11806;BME280;5960;42.602;23.482;2022-10-16T01:42:19;94039.81;;;9.72;75.87
11806;BME280;5960;42.602;23.482;2022-10-16T01:44:48;94038.31;;;9.78;75.26
11806;BME280;5960;42.602;23.482;2022-10-16T01:47:17;94046.25;;;9.61;75.79
11806;BME280;5960;42.602;23.482;2022-10-16T01:49:45;94047.22;;;9.60;76.42
11806;BME280;5960;42.602;23.482;2022-10-16T01:52:16;94047.03;;;9.70;75.92
11806;BME280;5960;42.602;23.482;2022-10-16T01:54:46;94051.31;;;9.79;75.43
11806;BME280;5960;42.602;23.482;2022-10-16T01:57:16;94043.41;;;9.71;75.92
11806;BME280;5960;42.602;23.482;2022-10-16T01:59:47;94047.56;;;9.57;76.21
11806;BME280;5960;42.602;23.482;2022-10-16T02:02:15;94042.63;;;9.62;76.20
11806;BME280;5960;42.602;23.482;2022-10-16T02:04:45;94036.19;;;9.73;76.00
11806;BME280;5960;42.602;23.482;2022-10-16T02:07:12;94043.19;;;9.98;74.77
11806;BME280;5960;42.602;23.482;2022-10-16T02:09:40;94043.47;;;10.03;74.44
11806;BME280;5960;42.602;23.482;2022-10-16T02:12:11;94041.03;;;10.01;74.18
11806;BME280;5960;42.602;23.482;2022-10-16T02:14:41;94045.84;;;9.89;74.45
11806;BME280;5960;42.602;23.482;2022-10-16T02:17:12;94063.28;;;9.90;74.67
11806;BME280;5960;42.602;23.482;2022-10-16T02:19:40;94059.66;;;9.83;74.39
11806;BME280;5960;42.602;23.482;2022-10-16T02:22:10;94061.66;;;9.81;74.52
11806;BME280;5960;42.602;23.482;2022-10-16T02:24:50;94065.91;;;9.90;74.23
11806;BME280;5960;42.602;23.482;2022-10-16T02:27:20;94067.88;;;9.97;73.96
11806;BME280;5960;42.602;23.482;2022-10-16T02:29:54;94073.31;;;9.87;74.21
11806;BME280;5960;42.602;23.482;2022-10-16T02:32:27;94072.47;;;9.94;74.41
11806;BME280;5960;42.602;23.482;2022-10-16T02:34:57;94075.56;;;9.98;74.07
11806;BME280;5960;42.602;23.482;2022-10-16T02:37:25;94064.06;;;9.99;74.26
11806;BME280;5960;42.602;23.482;2022-10-16T02:39:53;94076.63;;;9.89;74.53
11806;BME280;5960;42.602;23.482;2022-10-16T02:42:20;94078.59;;;9.78;74.38
11806;BME280;5960;42.602;23.482;2022-10-16T02:44:47;94076.63;;;9.81;75.01
11806;BME280;5960;42.602;23.482;2022-10-16T02:47:15;94079.41;;;9.79;74.88
11806;BME280;5960;42.602;23.482;2022-10-16T02:49:42;94072.06;;;9.66;74.60
11806;BME280;5960;42.602;23.482;2022-10-16T02:52:09;94076.16;;;9.69;75.78
11806;BME280;5960;42.602;23.482;2022-10-16T02:54:36;94084.91;;;9.61;76.21
11806;BME280;5960;42.602;23.482;2022-10-16T02:57:02;94081.28;;;9.62;75.79
11806;BME280;5960;42.602;23.482;2022-10-16T02:59:29;94081.94;;;9.47;76.19
11806;BME280;5960;42.602;23.482;2022-10-16T03:01:56;94089.34;;;9.44;76.22
11806;BME280;5960;42.602;23.482;2022-10-16T03:04:24;94089.03;;;9.47;76.24
11806;BME280;5960;42.602;23.482;2022-10-16T03:06:51;94092.16;;;9.42;76.35
11806;BME280;5960;42.602;23.482;2022-10-16T03:09:17;94093.31;;;9.15;76.87
11806;BME280;5960;42.602;23.482;2022-10-16T03:11:44;94089.69;;;9.24;77.14
11806;BME280;5960;42.602;23.482;2022-10-16T03:14:11;94090.50;;;9.08;77.00
11806;BME280;5960;42.602;23.482;2022-10-16T03:16:38;94090.34;;;9.01;77.67
11806;BME280;5960;42.602;23.482;2022-10-16T03:19:04;94094.78;;;8.93;78.19
11806;BME280;5960;42.602;23.482;2022-10-16T03:21:32;94093.97;;;9.00;77.92
11806;BME280;5960;42.602;23.482;2022-10-16T03:23:59;94096.59;;;9.09;77.77
11806;BME280;5960;42.602;23.482;2022-10-16T03:26:26;94098.88;;;8.95;78.18
11806;BME280;5960;42.602;23.482;2022-10-16T03:28:53;94100.84;;;8.93;77.72
11806;BME280;5960;42.602;23.482;2022-10-16T03:31:20;94102.50;;;8.94;77.62
11806;BME280;5960;42.602;23.482;2022-10-16T03:33:47;94105.75;;;8.88;77.92
11806;BME280;5960;42.602;23.482;2022-10-16T03:36:14;94102.44;;;8.69;78.78
11806;BME280;5960;42.602;23.482;2022-10-16T03:38:42;94104.56;;;8.57;79.27
11806;BME280;5960;42.602;23.482;2022-10-16T03:41:09;94103.25;;;8.62;79.09
11806;BME280;5960;42.602;23.482;2022-10-16T03:43:35;94100.56;;;8.45;79.54
11806;BME280;5960;42.602;23.482;2022-10-16T03:46:02;94089.97;;;8.55;79.44
11806;BME280;5960;42.602;23.482;2022-10-16T03:48:29;94095.88;;;8.57;79.20
11806;BME280;5960;42.602;23.482;2022-10-16T03:50:57;94097.00;;;8.54;79.12
11806;BME280;5960;42.602;23.482;2022-10-16T03:53:24;94094.16;;;8.48;79.59
11806;BME280;5960;42.602;23.482;2022-10-16T03:55:52;94096.84;;;8.56;79.04
11806;BME280;5960;42.602;23.482;2022-10-16T03:58:19;94088.31;;;8.54;79.43
11806;BME280;5960;42.602;23.482;2022-10-16T04:00:46;94086.47;;;8.46;80.01
11806;BME280;5960;42.602;23.482;2022-10-16T04:03:13;94087.16;;;8.56;79.86
11806;BME280;5960;42.602;23.482;2022-10-16T04:05:40;94088.81;;;8.57;79.46
11806;BME280;5960;42.602;23.482;2022-10-16T04:08:07;94095.25;;;8.63;79.62
11806;BME280;5960;42.602;23.482;2022-10-16T04:10:34;94100.00;;;8.68;79.50
11806;BME280;5960;42.602;23.482;2022-10-16T04:13:02;94095.91;;;8.73;78.73
11806;BME280;5960;42.602;23.482;2022-10-16T04:15:29;94097.72;;;8.73;78.47
11806;BME280;5960;42.602;23.482;2022-10-16T04:17:56;94099.19;;;8.76;78.62
11806;BME280;5960;42.602;23.482;2022-10-16T04:20:22;94103.59;;;8.67;78.84
11806;BME280;5960;42.602;23.482;2022-10-16T04:22:49;94085.72;;;8.70;78.41
11806;BME280;5960;42.602;23.482;2022-10-16T04:25:16;94092.97;;;8.85;77.95
11806;BME280;5960;42.602;23.482;2022-10-16T04:27:42;94098.53;;;8.73;77.73
11806;BME280;5960;42.602;23.482;2022-10-16T04:30:11;94100.81;;;8.68;77.49
11806;BME280;5960;42.602;23.482;2022-10-16T04:32:38;94101.66;;;8.69;77.58
11806;BME280;5960;42.602;23.482;2022-10-16T04:35:05;94098.88;;;8.79;76.52
11806;BME280;5960;42.602;23.482;2022-10-16T04:37:32;94101.78;;;8.67;76.98
11806;BME280;5960;42.602;23.482;2022-10-16T04:39:59;94114.59;;;8.70;77.12
11806;BME280;5960;42.602;23.482;2022-10-16T04:42:25;94108.69;;;8.68;79.70
11806;BME280;5960;42.602;23.482;2022-10-16T04:44:52;94121.16;;;8.58;79.18
11806;BME280;5960;42.602;23.482;2022-10-16T04:47:21;94116.72;;;8.58;78.57
11806;BME280;5960;42.602;23.482;2022-10-16T04:49:47;94117.22;;;8.62;78.26
11806;BME280;5960;42.602;23.482;2022-10-16T04:52:14;94114.28;;;8.73;77.48
11806;BME280;5960;42.602;23.482;2022-10-16T04:54:41;94121.50;;;8.63;77.46
11806;BME280;5960;42.602;23.482;2022-10-16T04:57:10;94116.22;;;8.55;77.82
11806;BME280;5960;42.602;23.482;2022-10-16T04:59:37;94123.44;;;8.53;77.87
11806;BME280;5960;42.602;23.482;2022-10-16T05:02:03;94130.00;;;8.57;77.89
11806;BME280;5960;42.602;23.482;2022-10-16T05:04:32;94124.91;;;8.55;77.31
11806;BME280;5960;42.602;23.482;2022-10-16T05:06:59;94128.38;;;8.56;77.54
11806;BME280;5960;42.602;23.482;2022-10-16T05:09:26;94129.88;;;8.67;76.71
11806;BME280;5960;42.602;23.482;2022-10-16T05:11:52;94137.59;;;8.77;76.90
11806;BME280;5960;42.602;23.482;2022-10-16T05:14:19;94139.22;;;8.69;77.07
11806;BME280;5960;42.602;23.482;2022-10-16T05:16:46;94138.59;;;8.76;76.94
11806;BME280;5960;42.602;23.482;2022-10-16T05:19:13;94145.34;;;8.86;76.30
11806;BME280;5960;42.602;23.482;2022-10-16T05:21:41;94147.47;;;8.83;76.60
11806;BME280;5960;42.602;23.482;2022-10-16T05:24:08;94150.78;;;8.85;76.83
11806;BME280;5960;42.602;23.482;2022-10-16T05:26:35;94154.72;;;8.97;76.67
11806;BME280;5960;42.602;23.482;2022-10-16T05:29:01;94153.91;;;9.05;76.39
11806;BME280;5960;42.602;23.482;2022-10-16T05:31:28;94160.97;;;9.13;76.35
11806;BME280;5960;42.602;23.482;2022-10-16T05:33:58;94165.28;;;9.30;76.36
11806;BME280;5960;42.602;23.482;2022-10-16T05:36:25;94163.97;;;9.59;75.40
11806;BME280;5960;42.602;23.482;2022-10-16T05:38:53;94166.09;;;9.72;75.38
11806;BME280;5960;42.602;23.482;2022-10-16T05:41:20;94162.63;;;9.97;74.72
11806;BME280;5960;42.602;23.482;2022-10-16T05:43:47;94160.25;;;10.18;74.10
11806;BME280;5960;42.602;23.482;2022-10-16T05:46:14;94156.78;;;10.26;73.67
11806;BME280;5960;42.602;23.482;2022-10-16T05:48:41;94156.75;;;10.43;72.69
11806;BME280;5960;42.602;23.482;2022-10-16T05:51:12;94155.22;;;10.57;72.09
11806;BME280;5960;42.602;23.482;2022-10-16T05:53:40;94162.03;;;10.74;71.27
11806;BME280;5960;42.602;23.482;2022-10-16T05:56:10;94161.97;;;10.91;71.42
11806;BME280;5960;42.602;23.482;2022-10-16T05:58:38;94170.53;;;11.16;70.89
11806;BME280;5960;42.602;23.482;2022-10-16T06:01:07;94166.06;;;11.48;69.56
11806;BME280;5960;42.602;23.482;2022-10-16T06:03:34;94163.03;;;11.74;68.38
11806;BME280;5960;42.602;23.482;2022-10-16T06:06:07;94170.75;;;11.99;67.57
11806;BME280;5960;42.602;23.482;2022-10-16T06:08:34;94170.13;;;12.12;66.88
11806;BME280;5960;42.602;23.482;2022-10-16T06:11:02;94177.78;;;12.22;66.41
11806;BME280;5960;42.602;23.482;2022-10-16T06:13:30;94177.44;;;12.40;66.37
11806;BME280;5960;42.602;23.482;2022-10-16T06:15:58;94188.53;;;12.66;65.97
11806;BME280;5960;42.602;23.482;2022-10-16T06:18:26;94193.63;;;12.82;65.43
11806;BME280;5960;42.602;23.482;2022-10-16T06:20:53;94198.53;;;13.00;65.12
11806;BME280;5960;42.602;23.482;2022-10-16T06:23:20;94206.81;;;13.12;64.97
11806;BME280;5960;42.602;23.482;2022-10-16T06:25:47;94205.94;;;13.27;64.41
11806;BME280;5960;42.602;23.482;2022-10-16T06:28:14;94208.47;;;13.35;63.89
11806;BME280;5960;42.602;23.482;2022-10-16T06:30:42;94209.75;;;13.39;63.47
11806;BME280;5960;42.602;23.482;2022-10-16T06:33:09;94205.50;;;13.23;64.07
11806;BME280;5960;42.602;23.482;2022-10-16T06:35:36;94213.13;;;13.33;63.94
11806;BME280;5960;42.602;23.482;2022-10-16T06:38:03;94214.50;;;13.44;64.26
11806;BME280;5960;42.602;23.482;2022-10-16T06:40:30;94215.88;;;13.61;64.02
11806;BME280;5960;42.602;23.482;2022-10-16T06:42:56;94222.75;;;13.77;63.70
11806;BME280;5960;42.602;23.482;2022-10-16T06:45:23;94223.44;;;14.08;62.94
11806;BME280;5960;42.602;23.482;2022-10-16T06:47:51;94227.28;;;14.34;62.17
11806;BME280;5960;42.602;23.482;2022-10-16T06:50:18;94219.25;;;14.49;61.38
11806;BME280;5960;42.602;23.482;2022-10-16T06:52:44;94232.00;;;14.67;60.98
11806;BME280;5960;42.602;23.482;2022-10-16T06:55:11;94234.78;;;14.87;60.35
11806;BME280;5960;42.602;23.482;2022-10-16T06:57:38;94238.69;;;14.91;59.32
11806;BME280;5960;42.602;23.482;2022-10-16T07:00:06;94242.00;;;15.00;59.22
11806;BME280;5960;42.602;23.482;2022-10-16T07:02:33;94246.81;;;15.25;58.46
11806;BME280;5960;42.602;23.482;2022-10-16T07:05:01;94241.50;;;15.31;57.65
11806;BME280;5960;42.602;23.482;2022-10-16T07:07:28;94242.19;;;15.40;57.88
11806;BME280;5960;42.602;23.482;2022-10-16T07:09:54;94244.88;;;15.60;58.48
11806;BME280;5960;42.602;23.482;2022-10-16T07:12:21;94249.63;;;15.85;58.13
11806;BME280;5960;42.602;23.482;2022-10-16T07:14:48;94248.06;;;16.11;57.27
11806;BME280;5960;42.602;23.482;2022-10-16T07:17:17;94255.03;;;16.39;56.83
11806;BME280;5960;42.602;23.482;2022-10-16T07:19:44;94255.41;;;16.69;56.02
11806;BME280;5960;42.602;23.482;2022-10-16T07:22:12;94250.06;;;16.90;55.22
11806;BME280;5960;42.602;23.482;2022-10-16T07:24:39;94256.78;;;17.12;55.02
11806;BME280;5960;42.602;23.482;2022-10-16T07:27:06;94252.81;;;17.28;54.60
11806;BME280;5960;42.602;23.482;2022-10-16T07:29:33;94253.13;;;17.52;54.09
11806;BME280;5960;42.602;23.482;2022-10-16T07:31:59;94251.53;;;17.83;53.35
11806;BME280;5960;42.602;23.482;2022-10-16T07:34:26;94258.53;;;18.16;51.68
11806;BME280;5960;42.602;23.482;2022-10-16T07:36:53;94263.22;;;18.46;51.34
11806;BME280;5960;42.602;23.482;2022-10-16T07:39:21;94261.28;;;18.79;49.50
11806;BME280;5960;42.602;23.482;2022-10-16T07:41:48;94263.44;;;19.14;48.27
11806;BME280;5960;42.602;23.482;2022-10-16T07:44:15;94258.69;;;19.35;46.43
11806;BME280;5960;42.602;23.482;2022-10-16T07:46:43;94255.91;;;19.60;45.97
11806;BME280;5960;42.602;23.482;2022-10-16T07:49:09;94258.56;;;19.79;45.80
11806;BME280;5960;42.602;23.482;2022-10-16T07:51:36;94256.34;;;20.06;45.33
11806;BME280;5960;42.602;23.482;2022-10-16T07:54:03;94257.63;;;20.15;44.12
11806;BME280;5960;42.602;23.482;2022-10-16T07:56:32;94260.97;;;20.53;43.62
11806;BME280;5960;42.602;23.482;2022-10-16T07:58:59;94261.69;;;20.72;43.33
11806;BME280;5960;42.602;23.482;2022-10-16T08:01:25;94269.06;;;20.77;42.50
11806;BME280;5960;42.602;23.482;2022-10-16T08:03:52;94264.16;;;20.86;41.57
11806;BME280;5960;42.602;23.482;2022-10-16T08:06:20;94266.59;;;20.75;42.36
11806;BME280;5960;42.602;23.482;2022-10-16T08:08:48;94268.94;;;20.96;41.93
11806;BME280;5960;42.602;23.482;2022-10-16T08:11:14;94269.72;;;21.32;41.00
11806;BME280;5960;42.602;23.482;2022-10-16T08:13:42;94275.88;;;21.44;40.46
11806;BME280;5960;42.602;23.482;2022-10-16T08:16:09;94274.56;;;21.71;40.52
11806;BME280;5960;42.602;23.482;2022-10-16T08:18:37;94266.78;;;22.15;39.82
11806;BME280;5960;42.602;23.482;2022-10-16T08:21:05;94275.63;;;21.99;39.91
11806;BME280;5960;42.602;23.482;2022-10-16T08:23:33;94273.13;;;22.09;39.46
11806;BME280;5960;42.602;23.482;2022-10-16T08:26:03;94272.34;;;21.68;38.19
11806;BME280;5960;42.602;23.482;2022-10-16T08:28:30;94270.75;;;21.96;38.71
11806;BME280;5960;42.602;23.482;2022-10-16T08:31:06;94272.00;;;22.51;38.30
11806;BME280;5960;42.602;23.482;2022-10-16T08:33:33;94264.63;;;22.29;37.95
11806;BME280;5960;42.602;23.482;2022-10-16T08:36:01;94267.31;;;21.59;39.63
11806;BME280;5960;42.602;23.482;2022-10-16T08:38:28;94265.97;;;21.45;40.11
11806;BME280;5960;42.602;23.482;2022-10-16T08:41:00;94273.03;;;21.75;40.11
11806;BME280;5960;42.602;23.482;2022-10-16T08:43:43;94265.59;;;22.40;39.17
11806;BME280;5960;42.602;23.482;2022-10-16T08:46:29;94270.91;;;23.03;37.58
11806;BME280;5960;42.602;23.482;2022-10-16T08:49:02;94266.03;;;22.83;36.60
11806;BME280;5960;42.602;23.482;2022-10-16T08:51:32;94266.69;;;22.90;37.20
11806;BME280;5960;42.602;23.482;2022-10-16T08:54:02;94271.59;;;23.15;36.71
11806;BME280;5960;42.602;23.482;2022-10-16T08:56:29;94279.63;;;23.50;35.89
11806;BME280;5960;42.602;23.482;2022-10-16T08:58:57;94281.63;;;23.82;35.22
11806;BME280;5960;42.602;23.482;2022-10-16T09:01:37;94279.00;;;24.09;35.78
11806;BME280;5960;42.602;23.482;2022-10-16T09:04:43;94276.28;;;24.37;34.68
11806;BME280;5960;42.602;23.482;2022-10-16T09:07:19;94271.78;;;24.47;33.31
11806;BME280;5960;42.602;23.482;2022-10-16T09:10:01;94264.53;;;24.48;33.76
11806;BME280;5960;42.602;23.482;2022-10-16T09:12:37;94264.56;;;24.81;34.08
11806;BME280;5960;42.602;23.482;2022-10-16T09:15:15;94271.94;;;24.96;33.32
11806;BME280;5960;42.602;23.482;2022-10-16T09:17:53;94274.47;;;25.13;33.37
11806;BME280;5960;42.602;23.482;2022-10-16T09:20:29;94271.81;;;25.18;31.57
11806;BME280;5960;42.602;23.482;2022-10-16T09:23:10;94275.50;;;25.01;32.92
11806;BME280;5960;42.602;23.482;2022-10-16T09:25:39;94272.56;;;25.08;32.78
11806;BME280;5960;42.602;23.482;2022-10-16T09:28:08;94279.63;;;24.76;33.61
11806;BME280;5960;42.602;23.482;2022-10-16T09:30:37;94276.16;;;23.54;34.64
11806;BME280;5960;42.602;23.482;2022-10-16T09:33:05;94279.69;;;23.55;35.97
11806;BME280;5960;42.602;23.482;2022-10-16T09:35:36;94270.41;;;23.90;36.07
11806;BME280;5960;42.602;23.482;2022-10-16T09:38:04;94272.78;;;24.36;35.00
11806;BME280;5960;42.602;23.482;2022-10-16T09:40:32;94268.88;;;24.82;34.87
11806;BME280;5960;42.602;23.482;2022-10-16T09:43:05;94256.78;;;25.27;34.39
11806;BME280;5960;42.602;23.482;2022-10-16T09:45:35;94258.31;;;25.71;33.51
11806;BME280;5960;42.602;23.482;2022-10-16T09:48:10;94259.44;;;25.80;33.61
11806;BME280;5960;42.602;23.482;2022-10-16T09:50:37;94256.38;;;25.56;33.05
11806;BME280;5960;42.602;23.482;2022-10-16T09:53:05;94257.88;;;25.31;33.22
11806;BME280;5960;42.602;23.482;2022-10-16T09:55:32;94250.84;;;25.35;33.56
11806;BME280;5960;42.602;23.482;2022-10-16T09:57:59;94253.63;;;24.98;33.37
11806;BME280;5960;42.602;23.482;2022-10-16T10:00:26;94254.91;;;24.57;33.75
11806;BME280;5960;42.602;23.482;2022-10-16T10:02:53;94263.47;;;23.50;35.88
11806;BME280;5960;42.602;23.482;2022-10-16T10:05:24;94254.16;;;23.35;35.86
11806;BME280;5960;42.602;23.482;2022-10-16T10:07:56;94250.72;;;24.12;35.72
11806;BME280;5960;42.602;23.482;2022-10-16T10:10:25;94246.03;;;24.89;34.90
11806;BME280;5960;42.602;23.482;2022-10-16T10:12:53;94245.34;;;25.68;33.81
11806;BME280;5960;42.602;23.482;2022-10-16T10:15:21;94240.41;;;26.23;32.50
11806;BME280;5960;42.602;23.482;2022-10-16T10:17:50;94246.09;;;26.32;31.54
11806;BME280;5960;42.602;23.482;2022-10-16T10:20:27;94237.19;;;26.42;31.39
11806;BME280;5960;42.602;23.482;2022-10-16T10:22:55;94246.09;;;26.68;30.46
11806;BME280;5960;42.602;23.482;2022-10-16T10:25:38;94243.41;;;26.84;31.46
11806;BME280;5960;42.602;23.482;2022-10-16T10:28:23;94234.47;;;27.04;30.46
11806;BME280;5960;42.602;23.482;2022-10-16T10:31:01;94233.88;;;27.17;30.37
11806;BME280;5960;42.602;23.482;2022-10-16T10:33:37;94236.53;;;27.48;30.40
11806;BME280;5960;42.602;23.482;2022-10-16T10:36:16;94229.78;;;27.36;29.68
11806;BME280;5960;42.602;23.482;2022-10-16T10:38:50;94227.84;;;27.62;29.74
11806;BME280;5960;42.602;23.482;2022-10-16T10:41:32;94230.38;;;27.17;29.52
11806;BME280;5960;42.602;23.482;2022-10-16T10:44:09;94225.84;;;26.92;29.45
11806;BME280;5960;42.602;23.482;2022-10-16T10:46:41;94223.88;;;25.30;30.69
11806;BME280;5960;42.602;23.482;2022-10-16T10:49:32;94220.25;;;25.09;31.77
11806;BME280;5960;42.602;23.482;2022-10-16T10:52:11;94225.16;;;25.76;31.66
11806;BME280;5960;42.602;23.482;2022-10-16T10:54:46;94228.28;;;26.31;29.94
11806;BME280;5960;42.602;23.482;2022-10-16T10:57:22;94226.66;;;26.77;30.46
11806;BME280;5960;42.602;23.482;2022-10-16T11:00:03;94226.31;;;27.25;29.18
11806;BME280;5960;42.602;23.482;2022-10-16T11:02:37;94222.22;;;27.48;28.64
11806;BME280;5960;42.602;23.482;2022-10-16T11:05:31;94213.38;;;27.82;27.66
11806;BME280;5960;42.602;23.482;2022-10-16T11:08:06;94205.13;;;28.13;27.07
11806;BME280;5960;42.602;23.482;2022-10-16T11:10:44;94204.44;;;28.32;26.99
11806;BME280;5960;42.602;23.482;2022-10-16T11:13:20;94204.28;;;28.13;25.74
11806;BME280;5960;42.602;23.482;2022-10-16T11:15:51;94210.03;;;28.01;26.51
11806;BME280;5960;42.602;23.482;2022-10-16T11:18:24;94210.16;;;28.30;26.47
11806;BME280;5960;42.602;23.482;2022-10-16T11:20:56;94202.88;;;27.70;26.19
11806;BME280;5960;42.602;23.482;2022-10-16T11:23:28;94200.56;;;27.38;27.25
11806;BME280;5960;42.602;23.482;2022-10-16T11:25:59;94197.44;;;26.99;26.09
11806;BME280;5960;42.602;23.482;2022-10-16T11:28:31;94197.56;;;27.44;26.20
11806;BME280;5960;42.602;23.482;2022-10-16T11:31:02;94197.44;;;27.81;25.74
11806;BME280;5960;42.602;23.482;2022-10-16T11:33:39;94195.16;;;27.98;26.56
11806;BME280;5960;42.602;23.482;2022-10-16T11:36:12;94202.06;;;28.25;24.61
11806;BME280;5960;42.602;23.482;2022-10-16T11:38:47;94191.97;;;28.31;24.83
11806;BME280;5960;42.602;23.482;2022-10-16T11:41:24;94193.47;;;28.47;23.73
11806;BME280;5960;42.602;23.482;2022-10-16T11:44:03;94195.44;;;28.71;24.43
11806;BME280;5960;42.602;23.482;2022-10-16T11:46:35;94195.19;;;29.02;23.70
11806;BME280;5960;42.602;23.482;2022-10-16T11:49:09;94197.25;;;29.40;23.12
11806;BME280;5960;42.602;23.482;2022-10-16T11:51:40;94197.59;;;29.77;23.21
11806;BME280;5960;42.602;23.482;2022-10-16T11:54:17;94195.66;;;30.01;23.35
11806;BME280;5960;42.602;23.482;2022-10-16T11:56:50;94195.28;;;30.27;22.51
11806;BME280;5960;42.602;23.482;2022-10-16T11:59:23;94197.06;;;30.70;21.65
11806;BME280;5960;42.602;23.482;2022-10-16T12:01:56;94197.94;;;31.13;21.59
11806;BME280;5960;42.602;23.482;2022-10-16T12:04:29;94201.31;;;31.65;20.77
11806;BME280;5960;42.602;23.482;2022-10-16T12:07:03;94203.03;;;32.40;19.45
11806;BME280;5960;42.602;23.482;2022-10-16T12:09:34;94198.00;;;33.01;20.02
11806;BME280;5960;42.602;23.482;2022-10-16T12:12:02;94204.31;;;33.92;18.90
11806;BME280;5960;42.602;23.482;2022-10-16T12:14:37;94195.19;;;34.49;17.55
11806;BME280;5960;42.602;23.482;2022-10-16T12:17:23;94192.09;;;34.68;17.36
11806;BME280;5960;42.602;23.482;2022-10-16T12:20:01;94195.31;;;34.35;18.01
11806;BME280;5960;42.602;23.482;2022-10-16T12:22:29;94204.94;;;35.12;17.39
11806;BME280;5960;42.602;23.482;2022-10-16T12:24:59;94200.13;;;33.45;18.52
11806;BME280;5960;42.602;23.482;2022-10-16T12:27:29;94199.16;;;34.69;17.71
11806;BME280;5960;42.602;23.482;2022-10-16T12:29:58;94204.41;;;35.66;16.70
11806;BME280;5960;42.602;23.482;2022-10-16T12:32:29;94208.97;;;34.88;17.33
11806;BME280;5960;42.602;23.482;2022-10-16T12:34:58;94203.91;;;35.94;16.96
11806;BME280;5960;42.602;23.482;2022-10-16T12:37:27;94212.56;;;36.89;16.36
11806;BME280;5960;42.602;23.482;2022-10-16T12:39:56;94205.47;;;37.34;16.63
11806;BME280;5960;42.602;23.482;2022-10-16T12:42:33;94202.47;;;38.27;16.08
11806;BME280;5960;42.602;23.482;2022-10-16T12:45:01;94207.44;;;39.19;15.31
11806;BME280;5960;42.602;23.482;2022-10-16T12:47:46;94214.78;;;40.27;14.89
11806;BME280;5960;42.602;23.482;2022-10-16T12:50:32;94219.19;;;40.47;14.27
11806;BME280;5960;42.602;23.482;2022-10-16T12:53:00;94224.03;;;41.10;14.48
11806;BME280;5960;42.602;23.482;2022-10-16T12:55:34;94220.63;;;39.41;14.65
11806;BME280;5960;42.602;23.482;2022-10-16T12:58:24;94227.66;;;40.03;14.06
11806;BME280;5960;42.602;23.482;2022-10-16T13:01:04;94225.84;;;40.46;14.00
11806;BME280;5960;42.602;23.482;2022-10-16T13:03:47;94227.34;;;40.60;13.77
11806;BME280;5960;42.602;23.482;2022-10-16T13:06:33;94224.56;;;40.99;13.16
11806;BME280;5960;42.602;23.482;2022-10-16T13:09:11;94218.88;;;39.05;14.32
11806;BME280;5960;42.602;23.482;2022-10-16T13:12:07;94221.78;;;39.40;14.67
11806;BME280;5960;42.602;23.482;2022-10-16T13:17:43;94228.13;;;40.60;14.52
11806;BME280;5960;42.602;23.482;2022-10-16T13:20:16;94228.63;;;41.68;13.71
11806;BME280;5960;42.602;23.482;2022-10-16T13:22:54;94227.19;;;40.92;13.26
11806;BME280;5960;42.602;23.482;2022-10-16T13:25:30;94228.03;;;40.73;14.41